sensor_id;sensor_type;location;lat;lon;timestamp;pressure;altitude;pressure_sealevel;temperature;humidity
69219;BME280;56232;53.384;-2.732;2023-07-16T00:00:28;99234.13;;;15.50;36.86
69219;BME280;56232;53.384;-2.732;2023-07-16T00:02:54;99238.35;;;16.04;36.06
69219;BME280;56232;53.384;-2.732;2023-07-16T00:05:19;99238.72;;;16.00;35.90
69219;BME280;56232;53.384;-2.732;2023-07-16T00:07:45;99243.16;;;16.00;36.74
69219;BME280;56232;53.384;-2.732;2023-07-16T00:10:10;99243.61;;;16.05;36.78
69219;BME280;56232;53.384;-2.732;2023-07-16T00:12:36;99244.31;;;16.23;36.62
69219;BME280;56232;53.384;-2.732;2023-07-16T00:15:02;99252.99;;;15.61;36.64
69219;BME280;56232;53.384;-2.732;2023-07-16T00:17:27;99253.62;;;15.67;36.17
69219;BME280;56232;53.384;-2.732;2023-07-16T00:19:53;99253.67;;;15.64;36.21
69219;BME280;56232;53.384;-2.732;2023-07-16T00:22:18;99253.59;;;16.17;36.57
69219;BME280;56232;53.384;-2.732;2023-07-16T00:24:44;99259.18;;;15.44;36.30
69219;BME280;56232;53.384;-2.732;2023-07-16T00:27:10;99257.29;;;15.50;36.73
69219;BME280;56232;53.384;-2.732;2023-07-16T00:29:35;99260.76;;;16.03;36.91
69219;BME280;56232;53.384;-2.732;2023-07-16T00:32:01;99269.95;;;15.40;36.36
69219;BME280;56232;53.384;-2.732;2023-07-16T00:34:26;99272.91;;;15.41;36.59
69219;BME280;56232;53.384;-2.732;2023-07-16T00:36:52;99273.74;;;15.39;36.92
69219;BME280;56232;53.384;-2.732;2023-07-16T00:39:17;99274.74;;;15.45;36.74
69219;BME280;56232;53.384;-2.732;2023-07-16T00:41:43;99274.25;;;15.51;36.65
69219;BME280;56232;53.384;-2.732;2023-07-16T00:44:09;99281.63;;;15.49;36.39
69219;BME280;56232;53.384;-2.732;2023-07-16T00:46:34;99279.95;;;15.41;36.49
69219;BME280;56232;53.384;-2.732;2023-07-16T00:49:01;99285.14;;;16.13;36.46
69219;BME280;56232;53.384;-2.732;2023-07-16T00:51:26;99289.50;;;15.14;37.29
69219;BME280;56232;53.384;-2.732;2023-07-16T00:53:51;99292.47;;;15.62;37.15
69219;BME280;56232;53.384;-2.732;2023-07-16T00:56:17;99291.63;;;15.16;36.26
69219;BME280;56232;53.384;-2.732;2023-07-16T00:58:42;99301.53;;;15.59;37.84
69219;BME280;56232;53.384;-2.732;2023-07-16T01:01:08;99302.51;;;15.55;36.84
69219;BME280;56232;53.384;-2.732;2023-07-16T01:03:33;99300.73;;;15.57;36.50
69219;BME280;56232;53.384;-2.732;2023-07-16T01:06:06;99307.53;;;14.97;36.85
69219;BME280;56232;53.384;-2.732;2023-07-16T01:08:31;99314.18;;;16.06;36.30
69219;BME280;56232;53.384;-2.732;2023-07-16T01:10:50;99314.62;;;15.12;36.87
69219;BME280;56232;53.384;-2.732;2023-07-16T01:13:16;99319.24;;;15.60;37.26
69219;BME280;56232;53.384;-2.732;2023-07-16T01:15:42;99321.04;;;15.69;36.92
69219;BME280;56232;53.384;-2.732;2023-07-16T01:18:07;99325.50;;;15.14;37.07
69219;BME280;56232;53.384;-2.732;2023-07-16T01:20:33;99327.08;;;15.07;37.26
69219;BME280;56232;53.384;-2.732;2023-07-16T01:23:16;99335.04;;;15.77;37.17
69219;BME280;56232;53.384;-2.732;2023-07-16T01:25:43;99344.56;;;15.18;36.98
69219;BME280;56232;53.384;-2.732;2023-07-16T01:27:59;99347.53;;;15.87;37.23
69219;BME280;56232;53.384;-2.732;2023-07-16T01:30:16;99350.40;;;15.93;37.48
69219;BME280;56232;53.384;-2.732;2023-07-16T01:32:41;99354.90;;;15.37;36.94
69219;BME280;56232;53.384;-2.732;2023-07-16T01:35:08;99358.99;;;15.97;36.67
69219;BME280;56232;53.384;-2.732;2023-07-16T01:37:32;99348.93;;;15.77;36.94
69219;BME280;56232;53.384;-2.732;2023-07-16T01:39:58;99353.01;;;15.16;37.11
69219;BME280;56232;53.384;-2.732;2023-07-16T01:42:23;99355.59;;;15.32;37.69
69219;BME280;56232;53.384;-2.732;2023-07-16T01:44:49;99356.90;;;16.04;37.15
69219;BME280;56232;53.384;-2.732;2023-07-16T01:47:19;99358.19;;;15.33;36.53
69219;BME280;56232;53.384;-2.732;2023-07-16T01:49:40;99361.24;;;15.60;37.51
69219;BME280;56232;53.384;-2.732;2023-07-16T01:52:07;99360.81;;;15.44;37.17
69219;BME280;56232;53.384;-2.732;2023-07-16T01:54:31;99369.61;;;14.40;37.95
69219;BME280;56232;53.384;-2.732;2023-07-16T01:56:57;99370.86;;;15.58;37.82
69219;BME280;56232;53.384;-2.732;2023-07-16T01:59:23;99378.38;;;15.65;37.22
69219;BME280;56232;53.384;-2.732;2023-07-16T02:01:48;99380.55;;;15.67;37.73
69219;BME280;56232;53.384;-2.732;2023-07-16T02:04:14;99381.82;;;14.83;37.86
69219;BME280;56232;53.384;-2.732;2023-07-16T02:06:39;99387.80;;;15.48;37.25
69219;BME280;56232;53.384;-2.732;2023-07-16T02:09:06;99400.63;;;15.27;37.43
69219;BME280;56232;53.384;-2.732;2023-07-16T02:11:30;99400.57;;;15.35;37.84
69219;BME280;56232;53.384;-2.732;2023-07-16T02:13:56;99408.81;;;15.33;37.69
69219;BME280;56232;53.384;-2.732;2023-07-16T02:16:22;99412.42;;;15.37;37.55
69219;BME280;56232;53.384;-2.732;2023-07-16T02:18:47;99407.09;;;15.41;37.61
69219;BME280;56232;53.384;-2.732;2023-07-16T02:21:13;99418.32;;;15.42;37.26
69219;BME280;56232;53.384;-2.732;2023-07-16T02:23:39;99415.28;;;14.29;37.62
69219;BME280;56232;53.384;-2.732;2023-07-16T02:26:05;99428.87;;;15.25;38.15
69219;BME280;56232;53.384;-2.732;2023-07-16T02:28:30;99427.96;;;15.40;37.90
69219;BME280;56232;53.384;-2.732;2023-07-16T02:30:55;99431.90;;;15.43;37.29
69219;BME280;56232;53.384;-2.732;2023-07-16T02:33:21;99438.13;;;15.42;37.23
69219;BME280;56232;53.384;-2.732;2023-07-16T02:35:47;99444.84;;;15.52;37.40
69219;BME280;56232;53.384;-2.732;2023-07-16T02:38:12;99447.88;;;15.14;36.62
69219;BME280;56232;53.384;-2.732;2023-07-16T02:40:43;99454.97;;;15.81;36.91
69219;BME280;56232;53.384;-2.732;2023-07-16T02:43:04;99452.94;;;15.27;37.14
69219;BME280;56232;53.384;-2.732;2023-07-16T02:45:29;99460.22;;;15.75;37.11
69219;BME280;56232;53.384;-2.732;2023-07-16T02:47:55;99456.70;;;15.20;37.21
69219;BME280;56232;53.384;-2.732;2023-07-16T02:50:20;99467.07;;;15.22;36.86
69219;BME280;56232;53.384;-2.732;2023-07-16T02:52:46;99469.87;;;15.88;37.04
69219;BME280;56232;53.384;-2.732;2023-07-16T02:55:12;99476.79;;;14.85;36.65
69219;BME280;56232;53.384;-2.732;2023-07-16T02:57:37;99477.62;;;15.79;36.67
69219;BME280;56232;53.384;-2.732;2023-07-16T03:00:05;99484.73;;;15.70;36.67
69219;BME280;56232;53.384;-2.732;2023-07-16T03:02:28;99486.44;;;15.74;36.74
69219;BME280;56232;53.384;-2.732;2023-07-16T03:04:54;99495.21;;;15.01;36.70
69219;BME280;56232;53.384;-2.732;2023-07-16T03:07:20;99501.12;;;15.44;37.02
69219;BME280;56232;53.384;-2.732;2023-07-16T03:09:45;99505.49;;;14.99;36.81
69219;BME280;56232;53.384;-2.732;2023-07-16T03:12:11;99506.54;;;15.55;37.11
69219;BME280;56232;53.384;-2.732;2023-07-16T03:14:36;99512.64;;;15.71;36.49
69219;BME280;56232;53.384;-2.732;2023-07-16T03:17:02;99525.74;;;15.24;36.25
69219;BME280;56232;53.384;-2.732;2023-07-16T03:19:28;99521.16;;;15.07;36.55
69219;BME280;56232;53.384;-2.732;2023-07-16T03:21:53;99527.13;;;15.56;36.61
69219;BME280;56232;53.384;-2.732;2023-07-16T03:24:19;99526.22;;;15.65;36.88
69219;BME280;56232;53.384;-2.732;2023-07-16T03:26:44;99533.93;;;15.15;36.75
69219;BME280;56232;53.384;-2.732;2023-07-16T03:29:10;99538.72;;;14.60;36.78
69219;BME280;56232;53.384;-2.732;2023-07-16T03:31:36;99549.66;;;15.78;36.40
69219;BME280;56232;53.384;-2.732;2023-07-16T03:34:01;99548.61;;;15.69;36.74
69219;BME280;56232;53.384;-2.732;2023-07-16T03:36:27;99559.93;;;15.65;36.47
69219;BME280;56232;53.384;-2.732;2023-07-16T03:38:52;99574.23;;;15.66;36.40
69219;BME280;56232;53.384;-2.732;2023-07-16T03:41:18;99566.10;;;15.53;36.57
69219;BME280;56232;53.384;-2.732;2023-07-16T03:43:44;99573.90;;;15.04;36.79
69219;BME280;56232;53.384;-2.732;2023-07-16T03:46:09;99577.22;;;15.06;36.32
69219;BME280;56232;53.384;-2.732;2023-07-16T03:48:35;99592.68;;;15.76;36.37
69219;BME280;56232;53.384;-2.732;2023-07-16T03:51:01;99591.83;;;15.60;36.75
69219;BME280;56232;53.384;-2.732;2023-07-16T03:53:26;99596.65;;;15.08;36.33
69219;BME280;56232;53.384;-2.732;2023-07-16T03:55:52;99600.50;;;15.21;36.18
69219;BME280;56232;53.384;-2.732;2023-07-16T03:58:17;99607.84;;;15.89;36.22
69219;BME280;56232;53.384;-2.732;2023-07-16T04:00:43;99611.42;;;15.39;36.18
69219;BME280;56232;53.384;-2.732;2023-07-16T04:03:08;99615.16;;;14.98;35.76
69219;BME280;56232;53.384;-2.732;2023-07-16T04:05:34;99620.00;;;15.55;35.85
69219;BME280;56232;53.384;-2.732;2023-07-16T04:07:59;99616.36;;;15.62;35.64
69219;BME280;56232;53.384;-2.732;2023-07-16T04:10:25;99628.76;;;15.51;36.02
69219;BME280;56232;53.384;-2.732;2023-07-16T04:12:51;99635.03;;;15.44;35.80
69219;BME280;56232;53.384;-2.732;2023-07-16T04:15:16;99638.63;;;15.32;35.84
69219;BME280;56232;53.384;-2.732;2023-07-16T04:17:42;99636.34;;;15.92;35.90
69219;BME280;56232;53.384;-2.732;2023-07-16T04:20:08;99640.99;;;15.97;35.62
69219;BME280;56232;53.384;-2.732;2023-07-16T04:22:34;99645.05;;;15.49;35.32
69219;BME280;56232;53.384;-2.732;2023-07-16T04:24:58;99651.11;;;15.03;35.53
69219;BME280;56232;53.384;-2.732;2023-07-16T04:27:24;99662.79;;;15.42;35.39
69219;BME280;56232;53.384;-2.732;2023-07-16T04:29:50;99659.08;;;15.94;35.76
69219;BME280;56232;53.384;-2.732;2023-07-16T04:32:15;99662.95;;;14.92;35.71
69219;BME280;56232;53.384;-2.732;2023-07-16T04:34:41;99669.63;;;15.00;35.35
69219;BME280;56232;53.384;-2.732;2023-07-16T04:37:07;99671.41;;;16.09;35.43
69219;BME280;56232;53.384;-2.732;2023-07-16T04:39:32;99675.32;;;14.92;35.71
69219;BME280;56232;53.384;-2.732;2023-07-16T04:41:58;99680.39;;;15.65;35.64
69219;BME280;56232;53.384;-2.732;2023-07-16T04:44:24;99684.24;;;15.78;35.22
69219;BME280;56232;53.384;-2.732;2023-07-16T04:46:49;99688.47;;;15.80;35.26
69219;BME280;56232;53.384;-2.732;2023-07-16T04:49:15;99688.55;;;15.68;35.10
69219;BME280;56232;53.384;-2.732;2023-07-16T04:51:41;99691.48;;;15.58;35.17
69219;BME280;56232;53.384;-2.732;2023-07-16T04:54:07;99694.84;;;15.52;35.26
69219;BME280;56232;53.384;-2.732;2023-07-16T04:56:32;99699.35;;;15.55;35.13
69219;BME280;56232;53.384;-2.732;2023-07-16T04:58:57;99705.53;;;15.98;35.21
69219;BME280;56232;53.384;-2.732;2023-07-16T05:01:23;99705.37;;;15.33;35.34
69219;BME280;56232;53.384;-2.732;2023-07-16T05:03:48;99709.93;;;15.44;35.43
69219;BME280;56232;53.384;-2.732;2023-07-16T05:06:14;99705.57;;;15.43;35.24
69219;BME280;56232;53.384;-2.732;2023-07-16T05:08:40;99713.19;;;16.10;35.44
69219;BME280;56232;53.384;-2.732;2023-07-16T05:11:06;99722.08;;;15.06;35.15
69219;BME280;56232;53.384;-2.732;2023-07-16T05:13:31;99723.26;;;14.90;35.67
69219;BME280;56232;53.384;-2.732;2023-07-16T05:15:57;99727.57;;;16.13;35.74
69219;BME280;56232;53.384;-2.732;2023-07-16T05:18:22;99733.55;;;15.84;35.17
69219;BME280;56232;53.384;-2.732;2023-07-16T05:20:48;99732.68;;;15.62;35.48
69219;BME280;56232;53.384;-2.732;2023-07-16T05:23:13;99740.36;;;15.24;35.20
69219;BME280;56232;53.384;-2.732;2023-07-16T05:25:38;99744.15;;;15.29;35.46
69219;BME280;56232;53.384;-2.732;2023-07-16T05:28:05;99748.27;;;15.29;35.22
69219;BME280;56232;53.384;-2.732;2023-07-16T05:30:30;99749.69;;;15.85;35.16
69219;BME280;56232;53.384;-2.732;2023-07-16T05:32:55;99755.55;;;15.28;35.20
69219;BME280;56232;53.384;-2.732;2023-07-16T05:35:21;99752.90;;;16.51;35.18
69219;BME280;56232;53.384;-2.732;2023-07-16T05:37:46;99758.69;;;15.55;35.13
69219;BME280;56232;53.384;-2.732;2023-07-16T05:40:12;99767.83;;;15.73;35.15
69219;BME280;56232;53.384;-2.732;2023-07-16T05:42:37;99759.46;;;15.68;35.23
69219;BME280;56232;53.384;-2.732;2023-07-16T05:45:04;99767.44;;;15.88;35.04
69219;BME280;56232;53.384;-2.732;2023-07-16T05:47:28;99772.66;;;15.95;35.05
69219;BME280;56232;53.384;-2.732;2023-07-16T05:49:54;99774.04;;;15.90;34.99
69219;BME280;56232;53.384;-2.732;2023-07-16T05:52:19;99777.92;;;15.98;34.98
69219;BME280;56232;53.384;-2.732;2023-07-16T05:54:45;99774.26;;;15.94;35.01
69219;BME280;56232;53.384;-2.732;2023-07-16T05:57:11;99783.59;;;16.01;35.00
69219;BME280;56232;53.384;-2.732;2023-07-16T05:59:36;99793.35;;;15.98;35.01
69219;BME280;56232;53.384;-2.732;2023-07-16T06:02:02;99788.98;;;16.03;35.08
69219;BME280;56232;53.384;-2.732;2023-07-16T06:04:28;99797.68;;;16.59;34.86
69219;BME280;56232;53.384;-2.732;2023-07-16T06:06:53;99802.05;;;16.57;34.98
69219;BME280;56232;53.384;-2.732;2023-07-16T06:09:19;99807.09;;;16.12;34.90
69219;BME280;56232;53.384;-2.732;2023-07-16T06:11:46;99811.08;;;16.08;34.94
69219;BME280;56232;53.384;-2.732;2023-07-16T06:14:10;99819.35;;;16.06;34.93
69219;BME280;56232;53.384;-2.732;2023-07-16T06:16:35;99821.16;;;16.66;34.84
69219;BME280;56232;53.384;-2.732;2023-07-16T06:19:01;99831.16;;;16.25;34.82
69219;BME280;56232;53.384;-2.732;2023-07-16T06:21:27;99833.47;;;16.35;34.63
69219;BME280;56232;53.384;-2.732;2023-07-16T06:23:52;99836.21;;;15.86;34.74
69219;BME280;56232;53.384;-2.732;2023-07-16T06:26:18;99840.23;;;16.48;34.57
69219;BME280;56232;53.384;-2.732;2023-07-16T06:28:44;99843.72;;;16.71;34.39
69219;BME280;56232;53.384;-2.732;2023-07-16T06:31:10;99849.35;;;16.88;34.24
69219;BME280;56232;53.384;-2.732;2023-07-16T06:33:35;99855.25;;;15.97;34.12
69219;BME280;56232;53.384;-2.732;2023-07-16T06:36:00;99861.78;;;16.74;33.82
69219;BME280;56232;53.384;-2.732;2023-07-16T06:38:26;99864.12;;;16.70;33.98
69219;BME280;56232;53.384;-2.732;2023-07-16T06:40:52;99869.77;;;16.89;33.87
69219;BME280;56232;53.384;-2.732;2023-07-16T06:43:17;99869.87;;;17.37;33.87
69219;BME280;56232;53.384;-2.732;2023-07-16T06:45:43;99874.52;;;16.23;33.91
69219;BME280;56232;53.384;-2.732;2023-07-16T06:48:08;99885.13;;;16.80;33.90
69219;BME280;56232;53.384;-2.732;2023-07-16T06:50:34;99879.83;;;16.63;34.14
69219;BME280;56232;53.384;-2.732;2023-07-16T06:53:00;99883.58;;;17.27;34.01
69219;BME280;56232;53.384;-2.732;2023-07-16T06:55:25;99885.38;;;16.90;34.02
69219;BME280;56232;53.384;-2.732;2023-07-16T06:57:51;99895.38;;;17.23;33.80
69219;BME280;56232;53.384;-2.732;2023-07-16T07:00:21;99897.09;;;16.82;33.63
69219;BME280;56232;53.384;-2.732;2023-07-16T07:02:42;99902.94;;;17.01;33.53
69219;BME280;56232;53.384;-2.732;2023-07-16T07:05:08;99904.37;;;17.67;33.54
69219;BME280;56232;53.384;-2.732;2023-07-16T07:07:33;99907.94;;;17.06;33.66
69219;BME280;56232;53.384;-2.732;2023-07-16T07:09:59;99912.96;;;17.02;33.57
69219;BME280;56232;53.384;-2.732;2023-07-16T07:12:25;99909.95;;;17.08;33.62
69219;BME280;56232;53.384;-2.732;2023-07-16T07:14:50;99916.05;;;17.31;33.41
69219;BME280;56232;53.384;-2.732;2023-07-16T07:17:16;99919.99;;;17.41;33.29
69219;BME280;56232;53.384;-2.732;2023-07-16T07:19:42;99928.92;;;17.39;33.28
69219;BME280;56232;53.384;-2.732;2023-07-16T07:22:07;99929.23;;;17.31;33.26
69219;BME280;56232;53.384;-2.732;2023-07-16T07:24:32;99931.93;;;17.41;33.26
69219;BME280;56232;53.384;-2.732;2023-07-16T07:26:57;99937.51;;;17.44;33.33
69219;BME280;56232;53.384;-2.732;2023-07-16T07:29:23;99937.93;;;17.42;33.29
69219;BME280;56232;53.384;-2.732;2023-07-16T07:31:49;99936.82;;;17.64;33.30
69219;BME280;56232;53.384;-2.732;2023-07-16T07:34:14;99942.41;;;18.31;32.91
69219;BME280;56232;53.384;-2.732;2023-07-16T07:36:40;99939.72;;;17.89;32.36
69219;BME280;56232;53.384;-2.732;2023-07-16T07:39:07;99947.38;;;19.48;32.02
69219;BME280;56232;53.384;-2.732;2023-07-16T07:41:31;99951.24;;;19.41;31.85
69219;BME280;56232;53.384;-2.732;2023-07-16T07:43:57;99958.53;;;18.95;31.86
69219;BME280;56232;53.384;-2.732;2023-07-16T07:46:22;99968.26;;;18.85;31.94
69219;BME280;56232;53.384;-2.732;2023-07-16T07:48:48;99972.40;;;18.74;31.95
69219;BME280;56232;53.384;-2.732;2023-07-16T07:51:13;99977.49;;;18.71;31.90
69219;BME280;56232;53.384;-2.732;2023-07-16T07:53:39;99984.62;;;18.34;32.20
69219;BME280;56232;53.384;-2.732;2023-07-16T07:56:05;99986.67;;;18.63;32.50
69219;BME280;56232;53.384;-2.732;2023-07-16T07:58:30;99993.87;;;18.57;32.60
69219;BME280;56232;53.384;-2.732;2023-07-16T08:00:56;99999.48;;;18.21;32.42
69219;BME280;56232;53.384;-2.732;2023-07-16T08:03:21;99999.77;;;18.18;32.29
69219;BME280;56232;53.384;-2.732;2023-07-16T08:05:48;100001.93;;;18.74;32.00
69219;BME280;56232;53.384;-2.732;2023-07-16T08:08:12;100012.45;;;19.17;31.53
69219;BME280;56232;53.384;-2.732;2023-07-16T08:10:38;100008.64;;;18.67;31.47
69219;BME280;56232;53.384;-2.732;2023-07-16T08:13:04;100009.28;;;19.50;31.66
69219;BME280;56232;53.384;-2.732;2023-07-16T08:15:29;100017.23;;;19.53;31.56
69219;BME280;56232;53.384;-2.732;2023-07-16T08:17:55;100022.48;;;19.30;31.48
69219;BME280;56232;53.384;-2.732;2023-07-16T08:20:20;100030.70;;;19.84;31.15
69219;BME280;56232;53.384;-2.732;2023-07-16T08:22:46;100032.53;;;19.46;31.52
69219;BME280;56232;53.384;-2.732;2023-07-16T08:25:12;100041.80;;;18.52;31.54
69219;BME280;56232;53.384;-2.732;2023-07-16T08:27:37;100039.86;;;19.74;31.65
69219;BME280;56232;53.384;-2.732;2023-07-16T08:30:04;100029.87;;;20.49;31.13
69219;BME280;56232;53.384;-2.732;2023-07-16T08:32:29;100035.73;;;19.74;30.95
69219;BME280;56232;53.384;-2.732;2023-07-16T08:34:54;100043.12;;;18.99;31.17
69219;BME280;56232;53.384;-2.732;2023-07-16T08:37:20;100041.68;;;19.51;31.10
69219;BME280;56232;53.384;-2.732;2023-07-16T08:39:45;100052.68;;;19.29;31.30
69219;BME280;56232;53.384;-2.732;2023-07-16T08:42:10;100055.68;;;19.72;31.36
69219;BME280;56232;53.384;-2.732;2023-07-16T08:44:41;100060.30;;;19.73;31.36
69219;BME280;56232;53.384;-2.732;2023-07-16T08:47:02;100060.85;;;19.57;31.25
69219;BME280;56232;53.384;-2.732;2023-07-16T08:49:29;100070.44;;;19.52;31.23
69219;BME280;56232;53.384;-2.732;2023-07-16T08:51:54;100071.48;;;19.88;31.08
69219;BME280;56232;53.384;-2.732;2023-07-16T08:54:18;100070.64;;;20.35;30.80
69219;BME280;56232;53.384;-2.732;2023-07-16T08:56:44;100082.36;;;20.89;30.45
69219;BME280;56232;53.384;-2.732;2023-07-16T08:59:10;100089.02;;;21.11;29.67
69219;BME280;56232;53.384;-2.732;2023-07-16T09:01:36;100081.35;;;23.01;28.30
69219;BME280;56232;53.384;-2.732;2023-07-16T09:04:01;100089.01;;;23.95;27.32
69219;BME280;56232;53.384;-2.732;2023-07-16T09:06:27;100090.36;;;24.60;26.77
69219;BME280;56232;53.384;-2.732;2023-07-16T09:08:52;100094.94;;;25.51;25.98
69219;BME280;56232;53.384;-2.732;2023-07-16T09:11:17;100092.37;;;26.09;25.10
69219;BME280;56232;53.384;-2.732;2023-07-16T09:13:44;100092.29;;;25.26;25.58
69219;BME280;56232;53.384;-2.732;2023-07-16T09:16:08;100101.37;;;25.63;25.58
69219;BME280;56232;53.384;-2.732;2023-07-16T09:18:34;100100.45;;;24.88;25.81
69219;BME280;56232;53.384;-2.732;2023-07-16T09:21:00;100103.24;;;24.96;25.83
69219;BME280;56232;53.384;-2.732;2023-07-16T09:23:25;100110.39;;;25.42;25.21
69219;BME280;56232;53.384;-2.732;2023-07-16T09:25:50;100102.23;;;26.95;24.43
69219;BME280;56232;53.384;-2.732;2023-07-16T09:28:18;100104.16;;;27.98;23.85
69219;BME280;56232;53.384;-2.732;2023-07-16T09:30:42;100107.83;;;26.90;24.22
69219;BME280;56232;53.384;-2.732;2023-07-16T09:33:12;100111.63;;;26.84;24.64
69219;BME280;56232;53.384;-2.732;2023-07-16T09:35:35;100112.90;;;26.41;25.26
69219;BME280;56232;53.384;-2.732;2023-07-16T09:37:58;100112.50;;;25.79;24.60
69219;BME280;56232;53.384;-2.732;2023-07-16T09:40:24;100121.86;;;25.34;25.60
69219;BME280;56232;53.384;-2.732;2023-07-16T09:42:49;100118.34;;;26.31;24.98
69219;BME280;56232;53.384;-2.732;2023-07-16T09:45:18;100123.07;;;27.37;23.90
69219;BME280;56232;53.384;-2.732;2023-07-16T09:47:40;100129.73;;;27.82;23.90
69219;BME280;56232;53.384;-2.732;2023-07-16T09:50:07;100133.68;;;28.37;23.65
69219;BME280;56232;53.384;-2.732;2023-07-16T09:52:32;100134.34;;;28.70;23.51
69219;BME280;56232;53.384;-2.732;2023-07-16T09:54:57;100140.35;;;27.74;23.11
69219;BME280;56232;53.384;-2.732;2023-07-16T09:57:25;100152.78;;;28.24;23.15
69219;BME280;56232;53.384;-2.732;2023-07-16T09:59:48;100152.61;;;29.28;23.18
69219;BME280;56232;53.384;-2.732;2023-07-16T10:02:13;100160.72;;;29.10;23.14
69219;BME280;56232;53.384;-2.732;2023-07-16T10:04:39;100160.01;;;28.59;22.83
69219;BME280;56232;53.384;-2.732;2023-07-16T10:07:05;100168.12;;;26.45;24.20
69219;BME280;56232;53.384;-2.732;2023-07-16T10:09:32;100162.43;;;27.24;24.39
69219;BME280;56232;53.384;-2.732;2023-07-16T10:11:55;100162.66;;;28.44;23.33
69219;BME280;56232;53.384;-2.732;2023-07-16T10:14:24;100167.80;;;28.22;23.00
69219;BME280;56232;53.384;-2.732;2023-07-16T10:16:47;100173.65;;;28.66;23.78
69219;BME280;56232;53.384;-2.732;2023-07-16T10:19:11;100178.21;;;28.33;24.03
69219;BME280;56232;53.384;-2.732;2023-07-16T10:21:37;100182.74;;;27.29;24.28
69219;BME280;56232;53.384;-2.732;2023-07-16T10:24:16;100183.45;;;26.86;24.33
69219;BME280;56232;53.384;-2.732;2023-07-16T10:26:29;100184.92;;;27.13;24.06
69219;BME280;56232;53.384;-2.732;2023-07-16T10:28:54;100185.08;;;27.19;24.85
69219;BME280;56232;53.384;-2.732;2023-07-16T10:31:21;100182.53;;;25.60;25.71
69219;BME280;56232;53.384;-2.732;2023-07-16T10:36:17;100181.41;;;26.60;24.91
69219;BME280;56232;53.384;-2.732;2023-07-16T10:38:40;100181.87;;;26.48;25.20
69219;BME280;56232;53.384;-2.732;2023-07-16T10:41:01;100190.20;;;25.44;25.48
69219;BME280;56232;53.384;-2.732;2023-07-16T10:43:27;100191.52;;;25.19;26.46
69219;BME280;56232;53.384;-2.732;2023-07-16T10:45:52;100192.07;;;24.92;27.07
69219;BME280;56232;53.384;-2.732;2023-07-16T10:48:24;100191.45;;;25.00;27.27
69219;BME280;56232;53.384;-2.732;2023-07-16T10:50:43;100194.45;;;24.89;26.74
69219;BME280;56232;53.384;-2.732;2023-07-16T10:53:11;100186.44;;;26.54;26.04
69219;BME280;56232;53.384;-2.732;2023-07-16T10:55:34;100193.02;;;26.05;25.75
69219;BME280;56232;53.384;-2.732;2023-07-16T10:58:03;100189.09;;;26.63;25.43
69219;BME280;56232;53.384;-2.732;2023-07-16T11:00:25;100191.84;;;27.27;24.75
69219;BME280;56232;53.384;-2.732;2023-07-16T11:02:51;100188.93;;;27.55;24.77
69219;BME280;56232;53.384;-2.732;2023-07-16T11:05:17;100191.30;;;27.64;24.54
69219;BME280;56232;53.384;-2.732;2023-07-16T11:07:43;100190.07;;;27.09;25.38
69219;BME280;56232;53.384;-2.732;2023-07-16T11:10:08;100198.29;;;26.84;25.93
69219;BME280;56232;53.384;-2.732;2023-07-16T11:12:33;100204.02;;;26.90;26.43
69219;BME280;56232;53.384;-2.732;2023-07-16T11:14:59;100208.40;;;26.09;26.94
69219;BME280;56232;53.384;-2.732;2023-07-16T11:17:24;100214.62;;;26.14;26.85
69219;BME280;56232;53.384;-2.732;2023-07-16T11:19:51;100215.01;;;26.12;27.30
69219;BME280;56232;53.384;-2.732;2023-07-16T11:22:16;100223.82;;;25.25;27.60
69219;BME280;56232;53.384;-2.732;2023-07-16T11:24:42;100232.10;;;25.81;27.75
69219;BME280;56232;53.384;-2.732;2023-07-16T11:27:13;100232.34;;;26.03;28.50
69219;BME280;56232;53.384;-2.732;2023-07-16T11:29:34;100239.35;;;25.75;28.66
69219;BME280;56232;53.384;-2.732;2023-07-16T11:31:57;100240.98;;;25.55;27.17
69219;BME280;56232;53.384;-2.732;2023-07-16T11:34:23;100235.71;;;25.08;27.79
69219;BME280;56232;53.384;-2.732;2023-07-16T11:36:49;100230.35;;;24.81;28.39
69219;BME280;56232;53.384;-2.732;2023-07-16T11:39:13;100237.38;;;25.53;28.78
69219;BME280;56232;53.384;-2.732;2023-07-16T11:41:39;100227.87;;;24.62;28.26
69219;BME280;56232;53.384;-2.732;2023-07-16T11:44:07;100232.90;;;25.19;29.00
69219;BME280;56232;53.384;-2.732;2023-07-16T11:46:32;100229.78;;;25.15;28.71
69219;BME280;56232;53.384;-2.732;2023-07-16T11:48:55;100237.66;;;25.30;28.34
69219;BME280;56232;53.384;-2.732;2023-07-16T11:51:21;100225.68;;;25.40;26.93
69219;BME280;56232;53.384;-2.732;2023-07-16T11:53:46;100241.26;;;26.23;25.56
69219;BME280;56232;53.384;-2.732;2023-07-16T11:56:12;100240.19;;;25.28;25.10
69219;BME280;56232;53.384;-2.732;2023-07-16T11:58:37;100235.78;;;26.67;23.71
69219;BME280;56232;53.384;-2.732;2023-07-16T12:01:03;100234.56;;;26.92;23.71
69219;BME280;56232;53.384;-2.732;2023-07-16T12:03:28;100244.88;;;27.01;23.65
69219;BME280;56232;53.384;-2.732;2023-07-16T12:05:54;100242.36;;;25.76;23.85
69219;BME280;56232;53.384;-2.732;2023-07-16T12:08:20;100245.67;;;26.50;23.15
69219;BME280;56232;53.384;-2.732;2023-07-16T12:10:45;100248.27;;;27.03;23.23
69219;BME280;56232;53.384;-2.732;2023-07-16T12:13:10;100249.71;;;26.73;23.26
69219;BME280;56232;53.384;-2.732;2023-07-16T12:15:36;100255.66;;;26.29;23.39
69219;BME280;56232;53.384;-2.732;2023-07-16T12:18:02;100255.70;;;26.12;23.72
69219;BME280;56232;53.384;-2.732;2023-07-16T12:20:27;100260.97;;;25.35;23.72
69219;BME280;56232;53.384;-2.732;2023-07-16T12:22:53;100269.10;;;25.34;24.36
69219;BME280;56232;53.384;-2.732;2023-07-16T12:25:19;100267.48;;;25.12;24.61
69219;BME280;56232;53.384;-2.732;2023-07-16T12:27:44;100270.09;;;25.01;24.15
69219;BME280;56232;53.384;-2.732;2023-07-16T12:30:09;100266.41;;;25.49;24.50
69219;BME280;56232;53.384;-2.732;2023-07-16T12:32:35;100274.19;;;24.54;24.73
69219;BME280;56232;53.384;-2.732;2023-07-16T12:35:00;100276.54;;;25.15;24.47
69219;BME280;56232;53.384;-2.732;2023-07-16T12:37:26;100276.02;;;25.15;24.15